Terminal Aerodrome Forecast
Issued by NWS

Home | Current Version | Previous Version | Graphics & Text | Print | Product List | Glossary On
Versions: 1 2 3 4 5 6 7 8 9 10 11 12
128
FTUS43 KMPX 142329
TAFRWF
TAF
KRWF 142329Z 1500/1524 32018G26KT 6SM BLSN SCT015 OVC035
      TEMPO 1500/1503 1 1/2SM BLSN BKN018=

USA.gov is the U.S. government's official web portal to all federal, state and local government web resources and services.